Time;durP1;ratioP1;P1;durP2;ratioP2;P2;SDS_P1;SDS_P2;PMS_P1;PMS_P2;Temp;Humidity;BMP_temperature;BMP_pressure;BME280_temperature;BME280_humidity;BME280_pressure;Samples;Min_cycle;Max_cycle;Signal;HPM_P1;HPM_P2
2021/08/11 00:01:36;;;;;;;5.47;4.07;;;;;;;;;;4900170;29;20210;-87
2021/08/11 00:04:02;;;;;;;13.35;4.35;;;;;;;;;;4917274;29;20180;-87
2021/08/11 00:06:28;;;;;;;9.98;4.32;;;;;;;;;;4916830;29;20611;-87
2021/08/11 00:08:54;;;;;;;5.88;4.10;;;;;;;;;;4900495;29;20236;-87
2021/08/11 00:11:20;;;;;;;4.88;4.03;;;15.20;99.90;;;;;;4917175;29;20187;-87
2021/08/11 00:13:46;;;;;;;7.88;4.15;;;;;;;;;;4900038;29;20180;-87
2021/08/11 00:16:12;;;;;;;16.40;4.68;;;;;;;;;;4900691;29;20204;-87
2021/08/11 00:18:37;;;;;;;7.38;4.22;;;15.40;99.90;;;;;;4902596;29;20194;-88
2021/08/11 00:21:05;;;;;;;10.93;5.03;;;;;;;;;;4919206;29;20532;-87
2021/08/11 00:23:30;;;;;;;8.10;4.78;;;15.60;99.90;;;;;;4917389;29;20239;-87
2021/08/11 00:25:57;;;;;;;6.80;4.63;;;;;;;;;;4916798;29;20634;-87
2021/08/11 00:28:25;;;;;;;9.77;4.65;;;15.40;99.90;;;;;;4884699;29;20544;-87
2021/08/11 00:30:52;;;;;;;5.47;4.32;;;15.30;99.90;;;;;;4898957;29;20669;-87
2021/08/11 00:33:17;;;;;;;7.38;5.15;;;15.60;99.90;;;;;;4916831;29;20192;-87
2021/08/11 00:35:43;;;;;;;6.63;5.15;;;;;;;;;;4916366;29;20657;-87
2021/08/11 00:38:09;;;;;;;10.98;5.75;;;15.30;99.90;;;;;;4916852;29;20185;-87
2021/08/11 00:40:35;;;;;;;7.93;5.50;;;;;;;;;;4899542;29;20219;-87
2021/08/11 00:43:09;;;;;;;10.40;6.95;;;15.20;99.90;;;;;;4916846;29;20232;-87
2021/08/11 00:45:35;;;;;;;8.07;5.85;;;15.20;99.90;;;;;;4916744;29;20181;-87
2021/08/11 00:48:01;;;;;;;8.75;6.40;;;15.20;99.90;;;;;;4899868;29;20180;-87
2021/08/11 00:50:27;;;;;;;8.13;6.25;;;15.20;99.90;;;;;;4916783;29;20188;-87
2021/08/11 00:52:53;;;;;;;9.38;6.10;;;;;;;;;;4899688;29;20195;-88
2021/08/11 00:55:21;;;;;;;8.60;5.90;;;15.30;99.90;;;;;;4899788;29;20203;-87
2021/08/11 00:57:49;;;;;;;12.75;5.53;;;15.00;99.90;;;;;;4916444;29;20189;-87
2021/08/11 01:00:20;;;;;;;8.18;5.55;;;15.20;99.90;;;;;;4916489;29;20713;-88
2021/08/11 01:02:46;;;;;;;9.60;6.40;;;15.50;99.90;;;;;;4916246;29;20169;-87
2021/08/11 01:05:18;;;;;;;9.80;6.25;;;15.30;99.90;;;;;;4916667;29;20263;-87
2021/08/11 01:07:45;;;;;;;8.27;5.90;;;15.60;99.90;;;;;;4916438;29;20171;-87
2021/08/11 01:10:12;;;;;;;12.77;5.78;;;15.20;99.90;;;;;;4899577;29;20192;-87
2021/08/11 01:12:39;;;;;;;7.35;5.32;;;15.20;99.90;;;;;;4916020;29;20658;-87
2021/08/11 01:15:06;;;;;;;7.28;4.65;;;15.30;99.90;;;;;;4916578;29;20267;-88
2021/08/11 01:17:33;;;;;;;6.07;4.43;;;15.40;99.90;;;;;;4902018;29;20185;-88
2021/08/11 01:20:01;;;;;;;7.85;5.60;;;15.30;99.90;;;;;;4902823;29;20197;-87
2021/08/11 01:22:36;;;;;;;9.75;5.05;;;15.10;99.90;;;;;;4920104;29;20268;-87
2021/08/11 01:25:12;;;;;;;8.38;4.97;;;15.40;99.90;;;;;;4919816;29;20223;-87
2021/08/11 01:27:55;;;;;;;6.28;4.57;;;15.80;99.90;;;;;;4919859;29;20169;-87
2021/08/11 01:30:28;;;;;;;7.75;4.63;;;15.50;99.90;;;;;;4903208;29;20635;-88
2021/08/11 01:32:59;;;;;;;5.75;4.80;;;15.40;99.90;;;;;;4902716;29;20232;-87
2021/08/11 01:35:35;;;;;;;6.60;4.40;;;15.80;99.90;;;;;;4919860;29;20263;-87
2021/08/11 01:38:02;;;;;;;6.50;4.30;;;15.50;99.90;;;;;;4919907;29;20214;-87
2021/08/11 01:40:31;;;;;;;9.48;5.05;;;15.40;99.90;;;;;;4920012;29;20272;-88
2021/08/11 01:42:58;;;;;;;10.07;4.93;;;15.20;99.90;;;;;;4919459;29;20184;-88
2021/08/11 01:45:33;;;;;;;7.65;5.15;;;15.50;99.90;;;;;;4920043;29;20208;-87
2021/08/11 01:48:03;;;;;;;12.23;4.65;;;15.90;99.90;;;;;;4919638;29;20163;-87
2021/08/11 01:50:32;;;;;;;8.82;5.43;;;15.70;99.90;;;;;;4920908;29;20237;-87
2021/08/11 01:53:00;;;;;;;7.18;4.97;;;15.90;99.90;;;;;;4919629;29;20225;-87
2021/08/11 01:55:25;;;;;;;7.10;5.30;;;15.50;99.90;;;;;;4920363;29;20209;-87
2021/08/11 01:57:52;;;;;;;9.68;5.32;;;15.40;99.90;;;;;;4902494;29;20180;-87
2021/08/11 02:00:21;;;;;;;7.32;4.85;;;15.40;99.90;;;;;;4902315;29;20701;-87
2021/08/11 02:02:47;;;;;;;11.88;5.25;;;15.00;99.90;;;;;;4919164;29;20713;-87
2021/08/11 02:05:15;;;;;;;9.68;4.72;;;15.40;99.90;;;;;;4919535;29;20183;-87
2021/08/11 02:07:41;;;;;;;7.88;5.32;;;15.30;99.90;;;;;;4919123;29;20681;-87
2021/08/11 02:10:10;;;;;;;9.32;5.30;;;15.50;99.90;;;;;;4919186;29;20192;-87
2021/08/11 02:12:36;;;;;;;8.40;5.50;;;15.00;99.90;;;;;;4904397;29;20651;-87
2021/08/11 02:15:05;;;;;;;11.25;5.90;;;15.50;99.90;;;;;;4921843;29;20185;-86
2021/08/11 02:17:31;;;;;;;11.45;6.07;;;15.40;99.90;;;;;;4922035;29;20173;-87
2021/08/11 02:19:57;;;;;;;6.97;5.55;;;;;;;;;;4887567;29;20212;-87
2021/08/11 02:22:22;;;;;;;7.30;5.55;;;15.10;99.90;;;;;;4902101;29;20239;-87
2021/08/11 02:24:49;;;;;;;6.60;5.18;;;;;;;;;;4918279;29;20279;-87
2021/08/11 02:27:23;;;;;;;6.38;5.25;;;15.00;99.90;;;;;;4918906;29;20256;-87
2021/08/11 02:29:51;;;;;;;7.20;5.50;;;14.90;99.90;;;;;;4918525;29;20270;-87
2021/08/11 02:32:23;;;;;;;10.40;5.43;;;15.30;99.90;;;;;;4901859;29;20244;-87
2021/08/11 02:35:07;;;;;;;7.60;5.65;;;14.70;99.90;;;;;;4901673;29;20180;-87
2021/08/11 02:37:55;;;;;;;8.85;5.78;;;14.70;99.90;;;;;;4902037;29;20534;-87
2021/08/11 02:40:39;;;;;;;9.48;6.10;;;15.00;99.90;;;;;;4918973;29;20634;-87
2021/08/11 02:43:32;;;;;;;8.48;6.20;;;14.90;99.90;;;;;;4918506;29;20216;-87
2021/08/11 02:46:03;;;;;;;8.05;5.95;;;14.90;99.90;;;;;;4918421;29;20169;-87
2021/08/11 02:48:30;;;;;;;7.28;5.97;;;14.80;99.90;;;;;;4918763;29;20205;-87
2021/08/11 02:50:56;;;;;;;9.20;6.15;;;15.40;99.90;;;;;;4918207;29;20232;-87
2021/08/11 02:53:24;;;;;;;13.13;6.25;;;15.00;99.90;;;;;;4886096;29;20232;-87
2021/08/11 02:55:50;;;;;;;9.38;6.20;;;15.10;99.90;;;;;;4901062;29;20613;-87
2021/08/11 02:58:18;;;;;;;9.10;6.30;;;15.30;99.90;;;;;;4901655;29;20323;-87
2021/08/11 03:00:46;;;;;;;7.93;6.10;;;15.20;99.90;;;;;;4901002;29;20240;-88
2021/08/11 03:03:13;;;;;;;12.30;6.43;;;14.90;99.90;;;;;;4917776;29;20272;-88
2021/08/11 03:05:39;;;;;;;10.25;6.70;;;15.10;99.90;;;;;;4901661;29;20193;-88
2021/08/11 03:08:06;;;;;;;16.48;6.25;;;15.00;99.90;;;;;;4900891;29;20332;-89
2021/08/11 03:10:32;;;;;;;9.45;6.50;;;14.80;99.90;;;;;;4917955;29;20188;-89
2021/08/11 03:12:58;;;;;;;9.80;6.32;;;;;;;;;;4917647;29;20184;-88
2021/08/11 03:15:27;;;;;;;11.13;7.22;;;14.90;99.90;;;;;;4901310;29;20189;-87
2021/08/11 03:17:54;;;;;;;9.48;6.43;;;15.00;99.90;;;;;;4917453;29;20204;-87
2021/08/11 03:20:19;;;;;;;10.73;6.95;;;15.10;99.90;;;;;;4901211;29;20206;-88
2021/08/11 03:22:45;;;;;;;10.65;6.35;;;;;;;;;;4870117;29;20702;-89
2021/08/11 03:25:11;;;;;;;10.48;7.28;;;15.10;99.90;;;;;;4900681;29;20208;-89
2021/08/11 03:27:37;;;;;;;16.30;7.65;;;;;;;;;;4901096;29;20585;-89
2021/08/11 03:30:04;;;;;;;12.68;7.95;;;15.30;99.90;;;;;;4917297;29;20188;-88
2021/08/11 03:32:30;;;;;;;9.60;7.72;;;15.20;99.90;;;;;;4917661;29;20180;-89
2021/08/11 03:34:56;;;;;;;10.50;7.65;;;;;;;;;;4900573;29;20199;-88
2021/08/11 03:37:22;;;;;;;11.40;7.30;;;;;;;;;;4901175;29;20192;-89
2021/08/11 03:39:47;;;;;;;9.43;7.60;;;15.00;99.90;;;;;;4900446;29;20184;-90
2021/08/11 03:42:13;;;;;;;11.05;7.57;;;15.10;99.90;;;;;;4884482;29;20280;-88
2021/08/11 03:44:39;;;;;;;16.25;7.80;;;;;;;;;;4900914;29;20228;-89
2021/08/11 03:47:05;;;;;;;11.15;7.45;;;;;;;;;;4900238;29;20180;-88
2021/08/11 03:49:31;;;;;;;12.05;8.02;;;15.30;99.90;;;;;;4917535;29;20271;-87
2021/08/11 03:51:57;;;;;;;14.00;7.47;;;;;;;;;;4917152;29;20636;-88
2021/08/11 03:54:23;;;;;;;9.43;7.18;;;;;;;;;;4900450;29;20188;-90
2021/08/11 03:56:49;;;;;;;14.45;8.18;;;15.40;99.90;;;;;;4900617;29;20219;-89
2021/08/11 03:59:14;;;;;;;11.48;8.50;;;15.00;99.90;;;;;;4899969;29;20288;-89
2021/08/11 04:01:40;;;;;;;13.65;8.30;;;15.30;99.90;;;;;;4900514;29;20315;-88
2021/08/11 04:04:06;;;;;;;15.35;7.78;;;;;;;;;;4916797;29;20586;-89
2021/08/11 04:06:32;;;;;;;11.07;7.65;;;15.20;99.90;;;;;;4917527;29;20196;-89
2021/08/11 04:08:58;;;;;;;11.55;7.45;;;;;;;;;;4900458;29;20176;-89
2021/08/11 04:11:24;;;;;;;13.48;7.32;;;15.60;99.90;;;;;;4917388;29;20251;-89
2021/08/11 04:13:50;;;;;;;10.15;7.38;;;;;;;;;;4917121;29;20539;-89
2021/08/11 04:16:16;;;;;;;10.80;7.20;;;;;;;;;;4900224;29;20184;-89
2021/08/11 04:18:41;;;;;;;12.93;7.75;;;15.30;99.90;;;;;;4917244;29;20173;-90
2021/08/11 04:21:07;;;;;;;12.55;7.20;;;15.40;99.90;;;;;;4884387;29;20689;-90
2021/08/11 04:23:33;;;;;;;10.73;7.45;;;15.40;99.90;;;;;;4900467;29;20232;-89
2021/08/11 04:25:59;;;;;;;10.80;6.60;;;;;;;;;;4884796;29;20240;-90
2021/08/11 04:28:25;;;;;;;9.48;6.97;;;15.50;99.90;;;;;;4916887;29;20180;-90
2021/08/11 04:30:51;;;;;;;8.88;6.82;;;15.60;99.90;;;;;;4917266;29;20630;-90
2021/08/11 04:33:18;;;;;;;13.23;7.15;;;15.70;99.90;;;;;;4900068;29;20185;-90
2021/08/11 04:35:44;;;;;;;9.30;6.82;;;15.70;99.90;;;;;;4884903;29;20244;-89
2021/08/11 04:38:10;;;;;;;13.85;7.60;;;15.80;99.90;;;;;;4916906;29;20172;-90
2021/08/11 04:40:37;;;;;;;11.07;6.32;;;15.80;99.90;;;;;;4884571;29;20184;-89
2021/08/11 04:43:06;;;;;;;10.38;6.43;;;15.90;99.90;;;;;;4883847;29;20223;-88
2021/08/11 04:45:35;;;;;;;9.55;6.30;;;15.90;99.90;;;;;;4917077;29;20200;-88
2021/08/11 04:48:00;;;;;;;10.15;6.85;;;15.90;99.90;;;;;;4916539;29;20177;-88
2021/08/11 04:50:26;;;;;;;11.10;6.57;;;;;;;;;;4883820;29;20665;-87
2021/08/11 04:52:52;;;;;;;8.43;6.95;;;;;;;;;;4902578;29;20235;-88
2021/08/11 04:55:18;;;;;;;11.73;7.28;;;16.10;99.90;;;;;;4920326;29;20708;-89
2021/08/11 04:57:44;;;;;;;11.43;7.25;;;16.40;99.90;;;;;;4888498;29;20184;-89
2021/08/11 05:00:09;;;;;;;12.48;7.32;;;16.30;99.90;;;;;;4872416;29;20348;-90
2021/08/11 05:02:37;;;;;;;10.95;7.53;;;;;;;;;;4920909;29;20208;-90
2021/08/11 05:05:04;;;;;;;11.93;8.48;;;16.10;99.90;;;;;;4888778;29;20188;-90
2021/08/11 05:07:30;;;;;;;11.68;7.82;;;16.40;99.90;;;;;;4903695;29;20263;-89
2021/08/11 05:09:56;;;;;;;9.77;8.02;;;16.40;99.90;;;;;;4903703;29;20280;-90
2021/08/11 05:12:21;;;;;;;11.40;7.32;;;16.20;99.90;;;;;;4887786;29;20240;-90
2021/08/11 05:14:47;;;;;;;14.05;7.90;;;16.80;99.90;;;;;;4887778;29;20252;-90
2021/08/11 05:17:13;;;;;;;11.40;6.72;;;17.10;99.90;;;;;;4872749;29;20184;-88
2021/08/11 05:19:38;;;;;;;12.40;7.93;;;16.60;99.90;;;;;;4904950;29;20195;-88
2021/08/11 05:22:04;;;;;;;11.05;7.80;;;;;;;;;;4919985;29;20296;-86
2021/08/11 05:24:30;;;;;;;10.85;8.20;;;16.70;99.90;;;;;;4919765;29;20216;-87
2021/08/11 05:26:56;;;;;;;18.77;7.90;;;;;;;;;;4919783;29;20256;-87
2021/08/11 05:29:25;;;;;;;11.50;8.15;;;17.10;99.90;;;;;;4920134;29;20189;-88
2021/08/11 05:31:51;;;;;;;13.57;8.38;;;;;;;;;;4907098;29;20289;-89
2021/08/11 05:34:16;;;;;;;11.43;8.50;;;16.70;99.90;;;;;;4916510;29;20615;-88
2021/08/11 05:36:42;;;;;;;11.20;8.98;;;;;;;;;;4918306;28;20184;-91
2021/08/11 05:39:08;;;;;;;12.40;9.85;;;16.70;99.90;;;;;;4939835;29;20200;-89
2021/08/11 05:41:34;;;;;;;17.98;10.30;;;;;;;;;;4911086;29;20211;-88
2021/08/11 05:44:00;;;;;;;14.15;9.93;;;;;;;;;;4928322;29;20184;-89
2021/08/11 05:46:27;;;;;;;14.80;10.90;;;17.10;99.90;;;;;;4936721;29;20176;-89
2021/08/11 05:48:52;;;;;;;17.17;10.43;;;16.80;99.90;;;;;;4920806;29;20184;-90
2021/08/11 05:51:18;;;;;;;14.68;10.60;;;;;;;;;;4920354;29;20260;-89
2021/08/11 05:53:44;;;;;;;17.77;10.88;;;;;;;;;;4904441;29;20192;-89
2021/08/11 05:56:10;;;;;;;17.05;11.52;;;;;;;;;;4914641;29;20641;-86
2021/08/11 05:58:36;;;;;;;13.55;9.95;;;;;;;;;;4899897;29;20188;-88
2021/08/11 06:01:02;;;;;;;15.60;10.60;;;;;;;;;;4939064;29;20703;-87
2021/08/11 06:03:28;;;;;;;15.10;10.70;;;;;;;;;;4944938;29;20180;-89
2021/08/11 06:05:55;;;;;;;13.35;9.90;;;;;;;;;;4940172;29;20195;-89
2021/08/11 06:08:21;;;;;;;12.18;9.18;;;;;;;;;;4933111;29;20183;-89
2021/08/11 06:10:46;;;;;;;14.40;9.25;;;17.20;99.90;;;;;;4912625;29;20204;-89
2021/08/11 06:13:12;;;;;;;15.95;9.23;;;17.40;99.90;;;;;;4921929;29;20185;-90
2021/08/11 06:15:38;;;;;;;11.48;8.27;;;16.90;99.90;;;;;;4924145;29;20200;-91
2021/08/11 06:18:03;;;;;;;10.68;8.20;;;17.20;99.90;;;;;;4925152;29;20176;-91
2021/08/11 06:20:29;;;;;;;9.77;7.82;;;17.30;99.90;;;;;;4910996;29;20641;-91
2021/08/11 06:22:55;;;;;;;10.93;7.65;;;;;;;;;;4940615;29;20520;-91
2021/08/11 06:25:21;;;;;;;9.30;7.75;;;17.50;99.90;;;;;;4939173;29;20817;-91
2021/08/11 06:27:47;;;;;;;9.48;7.38;;;;;;;;;;4942002;29;20204;-92
2021/08/11 06:30:13;;;;;;;12.50;8.13;;;17.80;99.90;;;;;;4922324;29;20278;-90
2021/08/11 06:32:39;;;;;;;11.00;7.55;;;17.70;99.90;;;;;;4921413;29;20428;-91
2021/08/11 06:35:06;;;;;;;8.80;7.28;;;17.90;99.90;;;;;;4921080;29;20899;-90
2021/08/11 06:37:31;;;;;;;10.75;7.45;;;18.00;99.90;;;;;;4925015;29;20171;-91
2021/08/11 06:39:58;;;;;;;10.77;7.57;;;;;;;;;;4942887;29;20195;-92
2021/08/11 06:42:23;;;;;;;9.30;6.32;;;17.20;99.90;;;;;;4942111;29;20210;-91
2021/08/11 06:48:12;;;;;;;10.57;7.03;;;;;;;;;;5165822;23;20319;-87
2021/08/11 06:50:38;;;;;;;9.60;7.57;;;18.60;99.90;;;;;;4934670;23;20244;-91
2021/08/11 06:53:03;;;;;;;14.45;6.68;;;18.80;99.90;;;;;;4901849;29;20272;-91
2021/08/11 06:55:29;;;;;;;10.38;6.40;;;18.80;99.90;;;;;;4920643;29;20176;-90
2021/08/11 06:57:55;;;;;;;11.27;6.75;;;;;;;;;;4920911;29;20188;-91
2021/08/11 07:00:21;;;;;;;12.90;7.28;;;19.00;99.90;;;;;;4918871;29;20196;-91
2021/08/11 07:02:48;;;;;;;9.20;6.38;;;19.10;99.90;;;;;;4912522;29;20292;-91
2021/08/11 07:05:14;;;;;;;13.77;8.00;;;19.20;99.90;;;;;;4924473;29;20185;-91
2021/08/11 07:07:40;;;;;;;15.35;8.48;;;19.20;99.90;;;;;;4906588;29;20232;-87
2021/08/11 07:10:09;;;;;;;11.90;8.88;;;19.30;99.90;;;;;;4907594;29;20610;-91
2021/08/11 07:12:34;;;;;;;12.75;8.60;;;19.40;99.90;;;;;;4907903;29;20196;-91
2021/08/11 07:15:00;;;;;;;12.90;8.85;;;19.40;99.90;;;;;;4922667;29;20181;-91
2021/08/11 07:17:26;;;;;;;13.98;8.25;;;;;;;;;;4923268;29;20267;-91
2021/08/11 07:19:52;;;;;;;13.27;8.00;;;19.50;99.90;;;;;;4906778;29;20195;-91
2021/08/11 07:22:21;;;;;;;14.32;10.35;;;;;;;;;;4907190;29;20745;-91
2021/08/11 07:24:47;;;;;;;11.77;9.80;;;19.50;99.90;;;;;;4924130;29;20184;-91
2021/08/11 07:27:12;;;;;;;15.57;10.82;;;19.50;99.90;;;;;;4902836;29;20642;-93
2021/08/11 07:29:38;;;;;;;14.70;11.40;;;;;;;;;;4888060;29;20267;-91
2021/08/11 07:32:04;;;;;;;18.50;12.43;;;19.60;99.90;;;;;;4919407;29;20236;-92
2021/08/11 07:34:30;;;;;;;15.20;11.85;;;19.70;99.90;;;;;;4873332;29;20189;-93
2021/08/11 07:36:56;;;;;;;12.45;9.00;;;19.80;99.90;;;;;;4888272;29;20204;-93
2021/08/11 07:39:21;;;;;;;13.70;9.07;;;19.90;99.90;;;;;;4892195;29;20209;-92
2021/08/11 07:41:47;;;;;;;13.25;9.77;;;19.90;99.90;;;;;;4902304;29;20204;-92
2021/08/11 07:44:13;;;;;;;12.07;8.82;;;19.90;99.90;;;;;;4919467;29;20705;-92
2021/08/11 07:46:38;;;;;;;11.23;7.60;;;19.90;99.90;;;;;;4871275;29;20639;-92
2021/08/11 07:49:04;;;;;;;10.77;6.43;;;19.90;99.90;;;;;;4886137;29;20195;-90
2021/08/11 07:51:30;;;;;;;6.07;4.85;;;20.00;99.90;;;;;;4901683;29;20272;-90
2021/08/11 07:53:56;;;;;;;9.77;4.40;;;20.00;99.90;;;;;;4902044;29;20581;-91
2021/08/11 07:56:22;;;;;;;6.95;4.32;;;19.80;99.90;;;;;;4885929;29;20627;-90
2021/08/11 07:58:48;;;;;;;6.80;5.07;;;19.80;99.90;;;;;;4901923;29;20181;-88
2021/08/11 08:01:14;;;;;;;9.23;5.25;;;19.80;99.90;;;;;;4901769;29;20584;-90
2021/08/11 08:03:40;;;;;;;10.85;6.20;;;;;;;;;;4901073;29;20683;-89
2021/08/11 08:06:05;;;;;;;6.53;4.97;;;19.70;99.90;;;;;;4900648;29;20771;-91
2021/08/11 08:08:32;;;;;;;7.00;5.10;;;20.00;99.90;;;;;;4901902;29;20212;-91
2021/08/11 08:10:58;;;;;;;8.05;5.82;;;20.10;99.90;;;;;;4918571;29;20701;-92
2021/08/11 08:13:24;;;;;;;9.75;6.60;;;20.20;99.90;;;;;;4902917;29;20538;-91
2021/08/11 08:15:50;;;;;;;9.05;6.70;;;;;;;;;;4902529;29;20220;-89
2021/08/11 08:18:22;;;;;;;8.60;6.38;;;20.10;99.90;;;;;;4920116;29;20244;-91
2021/08/11 08:20:53;;;;;;;6.97;5.13;;;20.20;99.90;;;;;;4903437;29;20188;-89
2021/08/11 08:23:19;;;;;;;7.15;5.28;;;;;;;;;;4903899;29;20216;-89
2021/08/11 08:25:45;;;;;;;6.05;4.60;;;20.40;99.90;;;;;;4918089;29;20181;-89
2021/08/11 08:28:11;;;;;;;7.57;5.30;;;;;;;;;;4901482;29;20541;-90
2021/08/11 08:30:38;;;;;;;7.25;5.18;;;;;;;;;;4917718;29;20185;-91
2021/08/11 08:33:04;;;;;;;7.53;5.03;;;;;;;;;;4884801;29;20279;-92
2021/08/11 08:35:30;;;;;;;6.72;4.90;;;20.30;99.90;;;;;;4900317;29;20184;-91
2021/08/11 08:37:56;;;;;;;7.13;5.47;;;;;;;;;;4900110;29;20677;-90
2021/08/11 08:40:30;;;;;;;4.35;3.95;;;20.00;99.90;;;;;;4885905;29;20189;-91
2021/08/11 08:42:56;;;;;;;7.15;4.78;;;19.80;99.90;;;;;;4900947;29;20720;-91
2021/08/11 08:45:22;;;;;;;5.38;4.15;;;19.60;99.90;;;;;;4923926;29;20259;-91
2021/08/11 08:47:48;;;;;;;4.90;3.85;;;19.80;99.90;;;;;;4921156;29;20189;-90
2021/08/11 08:50:19;;;;;;;11.18;4.68;;;19.80;99.90;;;;;;4899700;29;20244;-91
2021/08/11 08:52:45;;;;;;;7.95;4.07;;;19.80;99.90;;;;;;4901177;29;20166;-92
2021/08/11 08:55:11;;;;;;;8.98;4.13;;;19.90;99.90;;;;;;4882140;29;20189;-91
2021/08/11 08:57:37;;;;;;;6.55;4.03;;;;;;;;;;4900298;29;20174;-91
2021/08/11 09:00:10;;;;;;;5.65;3.90;;;19.90;99.90;;;;;;4881897;29;20272;-90
2021/08/11 09:02:38;;;;;;;9.43;4.03;;;20.00;99.90;;;;;;4902130;29;20201;-92
2021/08/11 09:05:05;;;;;;;4.82;3.75;;;20.00;99.90;;;;;;4890100;29;20195;-91
2021/08/11 09:07:31;;;;;;;8.27;3.83;;;20.00;99.90;;;;;;4915620;29;20177;-90
2021/08/11 09:09:57;;;;;;;9.73;4.82;;;19.90;99.90;;;;;;4898847;29;20582;-90
2021/08/11 09:12:23;;;;;;;6.68;4.03;;;19.90;99.90;;;;;;4898873;29;20200;-90
2021/08/11 09:14:50;;;;;;;6.30;4.00;;;19.80;99.90;;;;;;4914944;29;20196;-90
2021/08/11 09:17:37;;;;;;;4.88;4.28;;;19.80;99.90;;;;;;4917045;29;20528;-91
2021/08/11 09:20:05;;;;;;;5.78;4.20;;;19.80;99.90;;;;;;4916812;29;20220;-90
2021/08/11 09:22:55;;;;;;;5.80;4.10;;;19.70;99.90;;;;;;4915834;29;20209;-92
2021/08/11 09:25:22;;;;;;;7.72;4.00;;;19.70;99.90;;;;;;4917156;29;20192;-88
2021/08/11 09:27:48;;;;;;;4.10;3.63;;;19.80;99.90;;;;;;4901354;29;20195;-89
2021/08/11 09:30:25;;;;;;;7.78;3.85;;;19.90;99.90;;;;;;4916304;29;20205;-89
2021/08/11 09:33:11;;;;;;;5.60;4.28;;;19.90;99.90;;;;;;4918323;29;20201;-89
2021/08/11 09:35:38;;;;;;;5.55;4.20;;;20.00;99.90;;;;;;4916130;29;20201;-90
2021/08/11 09:38:07;;;;;;;7.10;3.88;;;20.00;99.90;;;;;;4912713;29;20645;-89
2021/08/11 09:40:36;;;;;;;6.47;3.80;;;20.20;99.90;;;;;;4911838;29;20642;-88
2021/08/11 09:43:07;;;;;;;7.13;3.83;;;20.20;99.90;;;;;;4911072;29;20197;-90
2021/08/11 09:45:43;;;;;;;4.72;4.00;;;20.40;99.90;;;;;;4889296;29;20231;-90
2021/08/11 09:48:09;;;;;;;4.47;3.90;;;20.50;99.90;;;;;;4912964;29;20180;-89
2021/08/11 09:50:36;;;;;;;5.38;3.95;;;20.80;99.90;;;;;;4912664;29;20240;-89
2021/08/11 09:53:02;;;;;;;5.38;3.85;;;20.80;99.90;;;;;;4908842;29;20639;-89
2021/08/11 09:55:28;;;;;;;8.02;4.40;;;21.00;99.90;;;;;;4911389;29;20232;-91
2021/08/11 09:57:54;;;;;;;6.50;4.88;;;21.00;99.90;;;;;;4896328;29;20319;-90
2021/08/11 10:00:20;;;;;;;6.47;4.20;;;;;;;;;;4895078;29;20721;-90
2021/08/11 10:02:46;;;;;;;6.95;4.93;;;;;;;;;;4909688;29;20200;-89
2021/08/11 10:05:32;;;;;;;8.38;4.53;;;21.50;99.90;;;;;;4908086;29;20209;-90
2021/08/11 10:07:58;;;;;;;5.65;4.35;;;21.70;99.90;;;;;;4907226;29;20212;-89
2021/08/11 10:10:23;;;;;;;6.07;4.00;;;21.50;99.90;;;;;;4910325;29;20215;-89
2021/08/11 10:12:52;;;;;;;8.10;4.22;;;;;;;;;;4893180;29;20200;-89
2021/08/11 10:15:19;;;;;;;4.88;4.00;;;21.90;99.90;;;;;;4903831;29;20208;-88
2021/08/11 10:17:45;;;;;;;5.10;3.95;;;22.20;99.90;;;;;;4907780;29;20185;-90
2021/08/11 10:20:12;;;;;;;5.25;3.80;;;22.40;99.90;;;;;;4909394;29;20619;-91
2021/08/11 10:22:39;;;;;;;8.20;3.72;;;22.40;99.90;;;;;;4891920;29;20212;-93
2021/08/11 10:25:06;;;;;;;5.72;4.13;;;22.20;99.90;;;;;;4917989;29;20191;-92
2021/08/11 10:27:32;;;;;;;5.70;3.90;;;22.30;99.90;;;;;;4918304;29;20189;-91
2021/08/11 10:29:58;;;;;;;6.03;3.78;;;22.50;99.90;;;;;;4901688;29;20196;-90
2021/08/11 10:32:24;;;;;;;5.47;3.50;;;22.60;99.90;;;;;;4901250;29;20268;-91
2021/08/11 10:34:54;;;;;;;5.55;3.58;;;22.90;99.90;;;;;;4890629;29;20180;-93
2021/08/11 10:37:23;;;;;;;6.15;3.72;;;22.80;99.90;;;;;;4908982;29;20181;-91
2021/08/11 10:39:50;;;;;;;9.00;3.47;;;22.80;99.90;;;;;;4909319;29;20654;-92
2021/08/11 10:42:17;;;;;;;9.10;3.40;;;;;;;;;;4910779;29;20217;-93
2021/08/11 10:44:46;;;;;;;9.85;4.00;;;22.70;99.90;;;;;;4909169;29;20192;-92
2021/08/11 10:47:13;;;;;;;7.03;3.85;;;22.60;99.90;;;;;;4875830;29;20593;-90
2021/08/11 10:49:55;;;;;;;7.65;3.83;;;22.60;99.90;;;;;;4914794;29;20290;-90
2021/08/11 10:52:21;;;;;;;3.90;2.83;;;22.60;99.90;;;;;;4926692;29;20208;-92
2021/08/11 10:54:52;;;;;;;6.78;3.25;;;22.70;99.90;;;;;;4894241;29;20271;-94
2021/08/11 10:57:36;;;;;;;8.27;2.95;;;23.10;99.90;;;;;;4909124;29;20180;-94
2021/08/11 11:00:23;;;;;;;5.47;3.20;;;23.30;99.90;;;;;;4929726;29;20179;-91
2021/08/11 11:02:52;;;;;;;9.27;3.20;;;23.40;99.90;;;;;;4911166;29;20229;-91
2021/08/11 11:05:20;;;;;;;4.85;2.88;;;23.30;99.90;;;;;;4911284;29;20180;-94
2021/08/11 11:08:13;;;;;;;3.78;2.80;;;23.50;99.90;;;;;;4913520;29;20192;-93
2021/08/11 11:10:44;;;;;;;5.65;2.60;;;23.50;99.90;;;;;;4916014;29;20196;-93
2021/08/11 11:13:32;;;;;;;4.55;3.25;;;23.50;99.90;;;;;;4925278;29;20164;-93
2021/08/11 11:16:01;;;;;;;5.50;2.80;;;23.40;99.90;;;;;;4911223;29;20184;-93
2021/08/11 11:18:27;;;;;;;8.82;3.10;;;;;;;;;;4910413;29;20169;-94
2021/08/11 11:20:56;;;;;;;4.40;3.15;;;23.40;99.90;;;;;;4934903;29;20180;-92
2021/08/11 11:23:42;;;;;;;8.55;3.30;;;23.30;99.90;;;;;;4934554;29;20657;-94
2021/08/11 11:26:16;;;;;;;4.20;2.50;;;23.10;99.90;;;;;;4914306;29;20710;-93
2021/08/11 11:28:53;;;;;;;6.07;3.70;;;22.90;99.90;;;;;;4925088;29;20255;-95
2021/08/11 11:31:41;;;;;;;5.22;3.58;;;22.80;99.90;;;;;;4912644;29;20198;-92
2021/08/11 11:34:19;;;;;;;6.60;3.55;;;22.80;99.90;;;;;;4926304;29;20255;-92
2021/08/11 11:36:54;;;;;;;5.97;3.80;;;22.90;99.90;;;;;;4912268;29;20246;-94
2021/08/11 11:39:21;;;;;;;6.75;3.53;;;23.00;99.90;;;;;;4923730;29;20186;-93
2021/08/11 11:42:08;;;;;;;4.80;3.60;;;22.90;99.90;;;;;;4888866;29;20200;-94
2021/08/11 11:45:01;;;;;;;4.95;3.53;;;22.80;99.90;;;;;;4928133;29;20190;-94
2021/08/11 11:47:44;;;;;;;6.15;4.38;;;22.80;99.90;;;;;;4909949;29;20187;-93
2021/08/11 11:50:19;;;;;;;6.50;4.55;;;22.90;99.90;;;;;;4919565;29;20247;-91
2021/08/11 11:52:59;;;;;;;9.27;4.85;;;23.10;99.90;;;;;;4908464;29;20180;-93
2021/08/11 11:55:33;;;;;;;5.07;3.35;;;23.20;99.90;;;;;;4935244;29;20179;-93
2021/08/11 11:58:12;;;;;;;7.93;4.13;;;23.40;99.90;;;;;;4908180;29;20191;-94
2021/08/11 12:00:38;;;;;;;4.45;3.15;;;;;;;;;;4905287;29;20540;-92
2021/08/11 12:03:05;;;;;;;5.03;3.55;;;23.60;99.90;;;;;;4919141;29;20699;-92
2021/08/11 12:05:59;;;;;;;4.78;3.15;;;23.50;99.90;;;;;;4936163;29;20195;-92
2021/08/11 12:08:41;;;;;;;5.88;3.55;;;22.20;99.90;;;;;;4905348;29;20231;-89
2021/08/11 12:11:09;;;;;;;5.32;3.72;;;23.80;99.90;;;;;;4914911;29;20172;-93
2021/08/11 12:13:43;;;;;;;9.70;7.22;;;23.70;99.90;;;;;;4915239;29;20172;-92
2021/08/11 12:16:12;;;;;;;10.40;5.18;;;23.60;99.90;;;;;;4925688;29;20212;-92
2021/08/11 12:18:40;;;;;;;7.68;5.25;;;;;;;;;;4909953;29;20189;-93
2021/08/11 12:21:06;;;;;;;6.50;4.88;;;;;;;;;;4925524;29;20188;-93
2021/08/11 12:23:32;;;;;;;5.72;5.00;;;;;;;;;;4941428;29;20176;-91
2021/08/11 12:26:04;;;;;;;6.53;3.72;;;24.00;99.90;;;;;;4986080;23;20224;-89
2021/08/11 12:31:12;;;;;;;5.22;3.75;;;24.10;99.90;;;;;;5024690;23;20256;-89
2021/08/11 12:33:42;;;;;;;5.05;3.50;;;24.30;99.90;;;;;;4888245;29;20220;-92
2021/08/11 12:36:18;;;;;;;5.20;2.92;;;24.10;99.90;;;;;;4925291;29;20171;-91
2021/08/11 12:38:44;;;;;;;6.70;3.47;;;;;;;;;;4909697;29;20232;-92
2021/08/11 12:41:19;;;;;;;7.63;3.58;;;25.00;99.90;;;;;;4907650;29;20201;-92
2021/08/11 12:43:46;;;;;;;3.88;3.22;;;24.30;99.90;;;;;;4910034;29;20181;-92
2021/08/11 12:46:12;;;;;;;4.93;3.13;;;24.20;99.90;;;;;;4906414;29;20178;-92
2021/08/11 12:48:38;;;;;;;4.38;3.10;;;;;;;;;;4921155;29;20161;-92
2021/08/11 12:51:07;;;;;;;4.78;3.03;;;24.40;99.90;;;;;;4893912;29;20191;-93
2021/08/11 12:53:35;;;;;;;7.15;3.28;;;24.40;99.90;;;;;;4903022;29;20189;-94
2021/08/11 12:56:08;;;;;;;4.57;3.08;;;24.60;99.90;;;;;;4903832;29;20288;-93
2021/08/11 12:58:58;;;;;;;4.25;2.92;;;24.70;99.90;;;;;;4905389;29;20185;-93
2021/08/11 13:01:36;;;;;;;5.85;2.60;;;24.80;99.90;;;;;;4891079;29;20242;-91
2021/08/11 13:04:04;;;;;;;6.72;3.00;;;24.70;99.90;;;;;;4895058;29;20192;-94
2021/08/11 13:06:49;;;;;;;5.47;2.70;;;24.90;99.90;;;;;;4888063;29;20546;-90
2021/08/11 13:09:21;;;;;;;4.18;2.92;;;24.90;99.90;;;;;;4905759;29;20174;-92
2021/08/11 13:12:00;;;;;;;3.33;2.45;;;25.00;99.90;;;;;;4890007;29;20213;-91
2021/08/11 13:14:47;;;;;;;4.47;2.80;;;24.80;99.90;;;;;;4894312;29;20185;-93
2021/08/11 13:17:22;;;;;;;4.50;2.70;;;24.60;99.90;;;;;;4887296;29;20189;-94
2021/08/11 13:20:09;;;;;;;4.00;2.60;;;24.60;99.90;;;;;;4901437;29;20260;-92